createdAt,value
2023-02-14T00:01:12.082Z,9.63
2023-02-14T00:03:39.954Z,10.27
2023-02-14T00:06:12.680Z,9.30
2023-02-14T00:08:44.176Z,11.40
2023-02-14T00:11:13.623Z,9.68
2023-02-14T00:14:00.944Z,10.05
2023-02-14T00:16:28.323Z,9.95
2023-02-14T00:19:04.560Z,9.95
2023-02-14T00:21:36.602Z,9.80
2023-02-14T00:24:05.492Z,9.02
2023-02-14T00:26:33.596Z,8.60
2023-02-14T00:29:00.942Z,9.65
2023-02-14T00:31:28.303Z,9.65
2023-02-14T00:33:55.724Z,8.55
2023-02-14T00:36:23.120Z,11.38
2023-02-14T00:38:50.417Z,10.38
2023-02-14T00:41:20.598Z,9.68
2023-02-14T00:43:49.478Z,10.00
2023-02-14T00:46:18.698Z,9.00
2023-02-14T00:48:46.346Z,9.27
2023-02-14T00:51:14.827Z,9.73
2023-02-14T00:53:42.412Z,10.57
2023-02-14T00:56:09.773Z,8.60
2023-02-14T00:58:37.435Z,9.68
2023-02-14T01:01:05.037Z,9.43
2023-02-14T01:03:32.560Z,11.73
2023-02-14T01:06:00.219Z,8.75
2023-02-14T01:08:27.557Z,8.73
2023-02-14T01:10:54.993Z,10.25
2023-02-14T01:13:22.903Z,9.25
2023-02-14T01:15:52.070Z,8.63
2023-02-14T01:18:20.024Z,8.77
2023-02-14T01:20:47.426Z,9.18
2023-02-14T01:23:14.944Z,9.82
2023-02-14T01:25:42.164Z,10.50
2023-02-14T01:28:09.426Z,9.65
2023-02-14T01:30:37.167Z,8.90
2023-02-14T01:33:04.520Z,9.05
2023-02-14T01:35:31.818Z,10.02
2023-02-14T01:37:59.062Z,9.50
2023-02-14T01:40:26.346Z,7.82
2023-02-14T01:42:53.589Z,9.95
2023-02-14T01:45:26.858Z,9.70
2023-02-14T01:47:56.576Z,9.30
2023-02-14T01:50:30.376Z,8.93
2023-02-14T01:53:11.703Z,9.57
2023-02-14T01:55:47.004Z,8.35
2023-02-14T01:58:22.420Z,10.05
2023-02-14T02:00:59.558Z,8.32
2023-02-14T02:03:37.314Z,9.40
2023-02-14T02:06:22.246Z,9.75
2023-02-14T02:09:21.958Z,9.73
2023-02-14T02:11:49.684Z,8.40
2023-02-14T02:14:21.384Z,8.88
2023-02-14T02:16:57.589Z,8.80
2023-02-14T02:19:52.020Z,9.88
2023-02-14T02:22:56.658Z,8.23
2023-02-14T02:25:44.954Z,8.18
2023-02-14T02:28:39.778Z,8.32
2023-02-14T02:31:27.881Z,8.98
2023-02-14T02:34:29.269Z,8.00
2023-02-14T02:37:22.695Z,8.20
2023-02-14T02:40:04.815Z,7.95
2023-02-14T02:42:50.792Z,8.00
2023-02-14T02:45:31.298Z,7.60
2023-02-14T02:48:10.646Z,7.57
2023-02-14T02:51:05.199Z,8.70
2023-02-14T02:53:54.790Z,8.32
2023-02-14T02:57:01.857Z,7.72
2023-02-14T02:59:34.752Z,7.85
2023-02-14T03:02:10.919Z,7.93
2023-02-14T03:04:54.803Z,8.00
2023-02-14T03:07:37.558Z,7.22
2023-02-14T03:10:21.770Z,8.25
2023-02-14T03:13:13.689Z,7.32
2023-02-14T03:15:55.707Z,8.95
2023-02-14T03:19:03.268Z,7.93
2023-02-14T03:21:52.381Z,7.93
2023-02-14T03:24:25.235Z,7.88
2023-02-14T03:27:16.983Z,7.25
2023-02-14T03:29:52.924Z,8.63
2023-02-14T03:32:32.118Z,8.30
2023-02-14T03:35:28.756Z,7.85
2023-02-14T03:38:09.680Z,8.55
2023-02-14T03:40:44.872Z,8.32
2023-02-14T03:43:37.612Z,8.55
2023-02-14T03:46:27.204Z,8.43
2023-02-14T03:48:57.900Z,7.85
2023-02-14T03:51:27.009Z,8.18
2023-02-14T03:53:58.754Z,8.88
2023-02-14T03:56:48.278Z,8.02
2023-02-14T03:59:23.164Z,9.32
2023-02-14T04:02:22.092Z,8.63
2023-02-14T04:04:50.718Z,8.52
2023-02-14T04:07:23.262Z,8.35
2023-02-14T04:09:51.031Z,8.55
2023-02-14T04:12:32.332Z,9.00
2023-02-14T04:15:04.889Z,9.00
2023-02-14T04:17:50.682Z,8.13
2023-02-14T04:20:18.021Z,8.07
2023-02-14T04:22:46.439Z,8.40
2023-02-14T04:25:14.459Z,8.75
2023-02-14T04:27:41.972Z,8.15
2023-02-14T04:30:10.643Z,8.35
2023-02-14T04:32:38.796Z,8.57
2023-02-14T04:35:06.536Z,7.60
2023-02-14T04:37:33.931Z,8.48
2023-02-14T04:40:01.240Z,9.30
2023-02-14T04:42:28.710Z,8.90
2023-02-14T04:44:56.234Z,8.65
2023-02-14T04:47:23.595Z,9.10
2023-02-14T04:49:50.844Z,9.00
2023-02-14T04:52:18.226Z,8.75
2023-02-14T04:54:45.467Z,9.15
2023-02-14T04:57:12.751Z,10.43
2023-02-14T04:59:39.972Z,8.73
2023-02-14T05:02:07.239Z,8.90
2023-02-14T05:04:34.506Z,8.13
2023-02-14T05:07:01.823Z,8.50
2023-02-14T05:09:29.378Z,8.43
2023-02-14T05:11:56.625Z,8.25
2023-02-14T05:14:23.924Z,8.10
2023-02-14T05:16:51.204Z,9.63
2023-02-14T05:19:18.621Z,8.25
2023-02-14T05:21:45.910Z,8.23
2023-02-14T05:24:13.384Z,7.95
2023-02-14T05:26:41.059Z,8.80
2023-02-14T05:29:08.423Z,7.88
2023-02-14T05:31:35.884Z,8.85
2023-02-14T05:34:03.234Z,7.95
2023-02-14T05:36:31.045Z,7.95
2023-02-14T05:38:58.316Z,8.20
2023-02-14T05:41:25.527Z,8.10
2023-02-14T05:43:52.763Z,9.18
2023-02-14T05:46:19.977Z,8.10
2023-02-14T05:48:47.239Z,9.50
2023-02-14T05:51:14.469Z,8.13
2023-02-14T05:53:42.371Z,8.52
2023-02-14T05:56:09.900Z,8.48
2023-02-14T05:58:37.229Z,8.25
2023-02-14T06:01:04.664Z,8.77
2023-02-14T06:03:31.930Z,10.10
2023-02-14T06:05:59.208Z,8.80
2023-02-14T06:08:26.552Z,8.45
2023-02-14T06:10:53.965Z,8.57
2023-02-14T06:13:21.244Z,8.27
2023-02-14T06:15:48.558Z,9.18
2023-02-14T06:18:15.864Z,10.23
2023-02-14T06:20:43.155Z,9.20
2023-02-14T06:23:11.075Z,8.60
2023-02-14T06:25:38.566Z,8.75
2023-02-14T06:28:06.598Z,10.32
2023-02-14T06:30:33.915Z,9.63
2023-02-14T06:33:01.292Z,9.57
2023-02-14T06:35:28.697Z,9.77
2023-02-14T06:37:55.939Z,10.07
2023-02-14T06:40:24.056Z,9.75
2023-02-14T06:42:51.312Z,10.95
2023-02-14T06:45:18.708Z,11.82
2023-02-14T06:47:46.534Z,10.10
2023-02-14T06:50:13.858Z,10.73
2023-02-14T06:52:42.693Z,11.02
2023-02-14T06:55:13.176Z,11.20
2023-02-14T06:57:40.640Z,11.10
2023-02-14T07:00:08.657Z,11.77
2023-02-14T07:02:36.007Z,10.85
2023-02-14T07:05:03.332Z,10.13
2023-02-14T07:07:30.697Z,13.32
2023-02-14T07:09:58.077Z,13.02
2023-02-14T07:12:25.385Z,17.45
2023-02-14T07:14:52.642Z,16.17
2023-02-14T07:17:19.927Z,15.85
2023-02-14T07:19:47.192Z,19.17
2023-02-14T07:22:14.462Z,16.63
2023-02-14T07:24:42.542Z,17.67
2023-02-14T07:27:09.931Z,17.88
2023-02-14T07:29:37.464Z,19.23
2023-02-14T07:32:05.000Z,18.13
2023-02-14T07:34:33.033Z,23.00
2023-02-14T07:37:00.710Z,18.60
2023-02-14T07:39:28.504Z,20.80
2023-02-14T07:41:55.766Z,20.08
2023-02-14T07:44:23.172Z,19.50
2023-02-14T07:46:50.501Z,23.88
2023-02-14T07:49:17.883Z,18.67
2023-02-14T07:51:45.211Z,21.45
2023-02-14T07:54:12.569Z,17.25
2023-02-14T07:56:39.826Z,20.63
2023-02-14T07:59:07.098Z,21.45
2023-02-14T08:01:34.463Z,20.63
2023-02-14T08:04:01.755Z,20.42
2023-02-14T08:06:28.949Z,15.73
2023-02-14T08:08:56.372Z,17.52
2023-02-14T08:11:42.486Z,21.42
2023-02-14T08:14:09.697Z,16.98
2023-02-14T08:16:38.321Z,18.45
2023-02-14T08:19:05.810Z,27.80
2023-02-14T08:21:33.034Z,22.92
2023-02-14T08:24:00.480Z,18.52
2023-02-14T08:26:27.763Z,20.05
2023-02-14T08:28:55.080Z,16.75
2023-02-14T08:31:34.344Z,17.27
2023-02-14T08:34:03.014Z,19.10
2023-02-14T08:36:30.252Z,17.65
2023-02-14T08:38:57.766Z,20.25
2023-02-14T08:41:25.103Z,18.95
2023-02-14T08:43:52.483Z,17.70
2023-02-14T08:46:19.880Z,18.85
2023-02-14T08:48:47.244Z,21.63
2023-02-14T08:51:15.968Z,16.48
2023-02-14T08:53:44.214Z,19.23
2023-02-14T08:56:13.666Z,17.77
2023-02-14T08:58:41.427Z,20.08
2023-02-14T09:01:19.002Z,22.50
2023-02-14T09:03:46.533Z,18.70
2023-02-14T09:06:17.389Z,19.45
2023-02-14T09:08:46.529Z,16.92
2023-02-14T09:11:21.823Z,17.10
2023-02-14T09:13:50.668Z,16.35
2023-02-14T09:16:20.430Z,16.90
2023-02-14T09:18:48.806Z,18.52
2023-02-14T09:21:20.391Z,18.52
2023-02-14T09:23:48.132Z,18.13
2023-02-14T09:26:16.782Z,16.50
2023-02-14T09:28:45.593Z,19.40
2023-02-14T09:31:15.964Z,16.58
2023-02-14T09:33:45.829Z,18.30
2023-02-14T09:36:31.977Z,18.98
2023-02-14T09:38:59.236Z,19.33
2023-02-14T09:41:29.607Z,20.10
2023-02-14T09:44:03.924Z,18.92
2023-02-14T09:46:42.942Z,16.80
2023-02-14T09:49:17.244Z,19.60
2023-02-14T09:51:49.975Z,18.63
2023-02-14T09:54:22.916Z,17.60
2023-02-14T09:57:23.018Z,20.27
2023-02-14T09:59:57.270Z,19.15
2023-02-14T10:02:49.295Z,18.08
2023-02-14T10:05:28.948Z,17.92
2023-02-14T10:08:01.772Z,18.30
2023-02-14T10:10:38.673Z,19.52
2023-02-14T10:13:40.700Z,18.02
2023-02-14T10:16:26.836Z,18.00
2023-02-14T10:19:02.776Z,18.15
2023-02-14T10:21:51.775Z,19.23
2023-02-14T10:24:27.400Z,20.23
2023-02-14T10:27:11.797Z,17.98
2023-02-14T10:29:39.951Z,18.95
2023-02-14T10:32:17.328Z,21.15
2023-02-14T10:34:53.460Z,19.60
2023-02-14T10:38:05.330Z,19.02
2023-02-14T10:41:02.434Z,19.77
2023-02-14T10:43:48.544Z,18.55
2023-02-14T10:46:40.911Z,18.92
2023-02-14T10:49:34.236Z,21.17
2023-02-14T10:52:32.251Z,20.58
2023-02-14T10:55:08.376Z,17.83
2023-02-14T10:57:41.167Z,18.35
2023-02-14T11:00:17.196Z,20.48
2023-02-14T11:02:47.577Z,19.73
2023-02-14T11:05:46.629Z,17.85
2023-02-14T11:08:27.005Z,18.77
2023-02-14T11:11:02.226Z,18.08
2023-02-14T11:13:38.677Z,18.02
2023-02-14T11:16:12.247Z,17.52
2023-02-14T11:18:41.151Z,17.42
2023-02-14T11:21:14.333Z,24.33
2023-02-14T11:23:44.924Z,19.27
2023-02-14T11:26:25.204Z,18.13
2023-02-14T11:28:59.331Z,19.70
2023-02-14T11:31:38.539Z,20.40
2023-02-14T11:34:24.685Z,18.17
2023-02-14T11:36:51.971Z,17.67
2023-02-14T11:39:32.663Z,18.13
2023-02-14T11:42:04.404Z,20.88
2023-02-14T11:44:36.144Z,18.60
2023-02-14T11:47:28.467Z,18.40
2023-02-14T11:50:01.697Z,19.63
2023-02-14T11:52:30.564Z,18.75
2023-02-14T11:54:59.252Z,18.70
2023-02-14T11:57:35.284Z,20.95
2023-02-14T12:00:11.614Z,17.95
2023-02-14T12:02:42.351Z,17.55
2023-02-14T12:05:26.169Z,17.77
2023-02-14T12:08:03.260Z,18.70
2023-02-14T12:10:33.422Z,18.05
2023-02-14T12:13:22.417Z,17.45
2023-02-14T12:15:52.087Z,16.38
2023-02-14T12:18:38.224Z,16.88
2023-02-14T12:21:26.601Z,20.02
2023-02-14T12:24:19.009Z,17.40
2023-02-14T12:27:28.112Z,16.33
2023-02-14T12:30:03.682Z,17.95
2023-02-14T12:32:32.601Z,18.92
2023-02-14T12:35:18.663Z,17.90
2023-02-14T12:37:48.767Z,16.98
2023-02-14T12:40:42.799Z,17.15
2023-02-14T12:43:21.972Z,17.02
2023-02-14T12:46:34.341Z,16.75
2023-02-14T12:49:22.475Z,15.60
2023-02-14T12:52:04.107Z,16.42
2023-02-14T12:55:01.622Z,16.60
2023-02-14T12:57:49.083Z,16.35
2023-02-14T13:00:23.205Z,16.30
2023-02-14T13:03:11.456Z,16.65
2023-02-14T13:05:58.557Z,16.80
2023-02-14T13:08:43.543Z,16.88
2023-02-14T13:14:25.565Z,16.50
2023-02-14T13:17:27.329Z,16.85
2023-02-14T13:20:12.100Z,14.23
2023-02-14T13:22:41.214Z,17.85
2023-02-14T13:25:33.748Z,16.27
2023-02-14T13:28:05.731Z,16.38
2023-02-14T13:30:36.939Z,15.07
2023-02-14T13:33:09.519Z,15.57
2023-02-14T13:35:37.546Z,15.73
2023-02-14T13:38:12.164Z,17.38
2023-02-14T13:43:07.843Z,16.85
2023-02-14T13:45:35.196Z,16.38
2023-02-14T13:48:09.182Z,15.75
2023-02-14T13:50:49.795Z,17.02
2023-02-14T13:53:49.400Z,16.48
2023-02-14T13:56:16.624Z,15.30
2023-02-14T13:58:54.553Z,15.77
2023-02-14T14:01:34.381Z,15.05
2023-02-14T14:04:26.903Z,15.05
2023-02-14T14:07:16.761Z,14.95
2023-02-14T14:09:44.005Z,15.43
2023-02-14T14:12:29.399Z,14.85
2023-02-14T14:15:05.696Z,16.10
2023-02-14T14:17:37.230Z,13.23
2023-02-14T14:20:27.734Z,14.82
2023-02-14T14:22:57.725Z,16.40
2023-02-14T14:25:41.039Z,16.38
2023-02-14T14:28:18.306Z,15.48
2023-02-14T14:30:46.263Z,16.98
2023-02-14T14:33:26.869Z,17.58
2023-02-14T14:36:08.029Z,17.70
2023-02-14T14:38:46.482Z,15.80
2023-02-14T14:41:13.921Z,16.27
2023-02-14T14:43:42.284Z,15.52
2023-02-14T14:46:12.370Z,15.30
2023-02-14T14:48:42.707Z,17.85
2023-02-14T14:51:21.869Z,17.15
2023-02-14T14:54:05.816Z,17.85
2023-02-14T14:56:40.833Z,15.38
2023-02-14T14:59:30.167Z,16.85
2023-02-14T15:01:57.679Z,15.90
2023-02-14T15:04:33.720Z,17.60
2023-02-14T15:07:28.337Z,19.08
2023-02-14T15:09:55.657Z,15.93
2023-02-14T15:12:43.048Z,17.25
2023-02-14T15:15:16.753Z,16.23
2023-02-14T15:17:45.621Z,16.37
2023-02-14T15:20:23.127Z,16.85
2023-02-14T15:22:52.874Z,15.25
2023-02-14T15:25:48.006Z,16.15
2023-02-14T15:28:28.069Z,16.98
2023-02-14T15:31:01.836Z,15.50
2023-02-14T15:33:31.479Z,15.82
2023-02-14T15:36:04.309Z,19.90
2023-02-14T15:38:33.839Z,19.38
2023-02-14T15:41:01.708Z,16.85
2023-02-14T15:43:32.492Z,17.70
2023-02-14T15:46:14.354Z,16.67
2023-02-14T15:48:44.330Z,15.63
2023-02-14T15:51:19.781Z,14.77
2023-02-14T15:53:53.627Z,16.30
2023-02-14T15:56:24.995Z,15.30
2023-02-14T15:59:01.408Z,15.50
2023-02-14T16:01:30.352Z,14.85
2023-02-14T16:04:00.452Z,16.30
2023-02-14T16:06:44.980Z,15.00
2023-02-14T16:09:28.159Z,17.67
2023-02-14T16:11:55.538Z,14.60
2023-02-14T16:14:36.909Z,15.98
2023-02-14T16:17:11.698Z,17.13
2023-02-14T16:19:42.356Z,14.25
2023-02-14T16:22:25.136Z,17.75
2023-02-14T16:24:52.521Z,16.27
2023-02-14T16:27:19.781Z,14.15
2023-02-14T16:29:47.088Z,14.30
2023-02-14T16:32:20.174Z,13.85
2023-02-14T16:34:48.374Z,14.48
2023-02-14T16:37:25.117Z,13.38
2023-02-14T16:39:54.591Z,11.80
2023-02-14T16:42:22.006Z,13.45
2023-02-14T16:44:50.236Z,13.75
2023-02-14T16:47:20.692Z,14.23
2023-02-14T16:49:48.653Z,15.48
2023-02-14T16:52:23.822Z,14.48
2023-02-14T16:54:51.539Z,13.35
2023-02-14T16:57:23.855Z,12.85
2023-02-14T16:59:51.909Z,16.02
2023-02-14T17:02:19.612Z,18.27
2023-02-14T17:04:47.106Z,19.98
2023-02-14T17:07:16.023Z,22.83
2023-02-14T17:09:50.156Z,20.58
2023-02-14T17:12:24.640Z,29.85
2023-02-14T17:14:56.641Z,32.90
2023-02-14T17:17:24.580Z,31.42
2023-02-14T17:19:52.899Z,32.83
2023-02-14T17:22:20.843Z,32.35
2023-02-14T17:24:48.142Z,32.03
2023-02-14T17:27:15.410Z,38.47
2023-02-14T17:29:42.722Z,37.65
2023-02-14T17:32:13.704Z,32.45
2023-02-14T17:34:41.322Z,27.50
2023-02-14T17:37:08.681Z,27.50
2023-02-14T17:39:35.980Z,30.70
2023-02-14T17:42:03.847Z,26.20
2023-02-14T17:44:36.088Z,27.13
2023-02-14T17:47:04.801Z,30.13
2023-02-14T17:49:32.229Z,25.92
2023-02-14T17:51:59.525Z,24.33
2023-02-14T17:54:26.769Z,19.73
2023-02-14T17:56:54.174Z,26.48
2023-02-14T17:59:21.480Z,22.75
2023-02-14T18:01:48.913Z,23.10
2023-02-14T18:04:16.280Z,24.73
2023-02-14T18:06:43.688Z,26.30
2023-02-14T18:09:11.032Z,22.55
2023-02-14T18:11:40.402Z,24.45
2023-02-14T18:14:08.278Z,24.52
2023-02-14T18:16:38.663Z,26.50
2023-02-14T18:19:07.411Z,27.60
2023-02-14T18:21:36.827Z,24.60
2023-02-14T18:24:04.697Z,27.30
2023-02-14T18:26:32.791Z,26.20
2023-02-14T18:29:01.000Z,24.27
2023-02-14T18:31:28.324Z,23.70
2023-02-14T18:33:56.786Z,24.83
2023-02-14T18:36:26.748Z,26.52
2023-02-14T18:38:57.954Z,22.33
2023-02-14T18:41:26.381Z,27.23
2023-02-14T18:43:54.076Z,25.27
2023-02-14T18:46:27.190Z,27.52
2023-02-14T18:48:57.065Z,29.58
2023-02-14T18:51:29.840Z,24.10
2023-02-14T18:53:58.927Z,27.38
2023-02-14T18:56:29.069Z,31.27
2023-02-14T18:59:08.002Z,32.03
2023-02-14T19:01:38.066Z,33.58
2023-02-14T19:04:08.648Z,33.40
2023-02-14T19:06:36.635Z,37.83
2023-02-14T19:09:07.731Z,34.70
2023-02-14T19:11:35.074Z,39.47
2023-02-14T19:14:03.291Z,31.33
2023-02-14T19:16:36.756Z,36.55
2023-02-14T19:19:04.701Z,33.22
2023-02-14T19:21:34.371Z,39.20
2023-02-14T19:24:03.822Z,34.70
2023-02-14T19:26:34.683Z,34.55
2023-02-14T19:29:05.148Z,31.52
2023-02-14T19:31:36.382Z,35.90
2023-02-14T19:34:06.230Z,38.35
2023-02-14T19:36:36.306Z,36.05
2023-02-14T19:39:04.506Z,32.40
2023-02-14T19:41:34.517Z,31.23
2023-02-14T19:44:04.784Z,39.63
2023-02-14T19:46:33.396Z,34.78
2023-02-14T19:49:01.652Z,29.48
2023-02-14T19:51:35.964Z,33.60
2023-02-14T19:54:06.107Z,37.33
2023-02-14T19:56:36.865Z,33.72
2023-02-14T19:59:09.047Z,29.80
2023-02-14T20:01:46.327Z,29.75
2023-02-14T20:04:17.521Z,31.55
2023-02-14T20:06:46.181Z,26.88
2023-02-14T20:09:14.215Z,33.13
2023-02-14T20:11:50.075Z,35.97
2023-02-14T20:14:29.372Z,27.48
2023-02-14T20:16:58.811Z,33.00
2023-02-14T20:19:32.105Z,37.13
2023-02-14T20:22:00.016Z,34.15
2023-02-14T20:24:30.905Z,32.92
2023-02-14T20:26:58.606Z,35.65
2023-02-14T20:29:26.719Z,34.80
2023-02-14T20:31:58.210Z,32.33
2023-02-14T20:34:26.289Z,29.52
2023-02-14T20:36:56.356Z,33.38
2023-02-14T20:39:29.196Z,28.83
2023-02-14T20:41:56.707Z,33.63
2023-02-14T20:44:24.266Z,30.08
2023-02-14T20:46:54.284Z,29.73
2023-02-14T20:49:23.036Z,29.20
2023-02-14T20:51:51.561Z,30.00
2023-02-14T20:54:21.042Z,30.52
2023-02-14T20:56:50.769Z,29.13
2023-02-14T20:59:24.298Z,33.17
2023-02-14T21:01:51.607Z,33.08
2023-02-14T21:04:18.958Z,35.08
2023-02-14T21:06:48.458Z,34.83
2023-02-14T21:09:18.514Z,36.30
2023-02-14T21:11:45.796Z,35.22
2023-02-14T21:14:13.195Z,36.83
2023-02-14T21:16:40.487Z,36.17
2023-02-14T21:19:07.720Z,36.20
2023-02-14T21:21:37.211Z,34.72
2023-02-14T21:24:14.481Z,34.42
2023-02-14T21:26:42.735Z,43.45
2023-02-14T21:29:10.624Z,59.50
2023-02-14T21:31:38.652Z,36.60
2023-02-14T21:34:06.401Z,34.97
2023-02-14T21:36:38.045Z,37.15
2023-02-14T21:39:06.612Z,30.80
2023-02-14T21:41:35.020Z,34.88
2023-02-14T21:44:03.692Z,34.42
2023-02-14T21:46:35.699Z,30.65
2023-02-14T21:49:24.365Z,32.67
2023-02-14T21:51:51.893Z,35.00
2023-02-14T21:54:19.600Z,31.90
2023-02-14T21:56:47.625Z,31.73
2023-02-14T21:59:15.011Z,34.45
2023-02-14T22:01:43.241Z,33.80
2023-02-14T22:04:12.230Z,34.70
2023-02-14T22:06:41.834Z,33.85
2023-02-14T22:09:10.899Z,33.58
2023-02-14T22:11:38.266Z,34.05
2023-02-14T22:14:05.636Z,32.33
2023-02-14T22:16:33.027Z,31.08
2023-02-14T22:19:00.282Z,31.30
2023-02-14T22:21:28.492Z,33.22
2023-02-14T22:23:56.463Z,32.20
2023-02-14T22:26:38.621Z,30.55
2023-02-14T22:29:07.929Z,31.75
2023-02-14T22:31:41.220Z,30.23
2023-02-14T22:34:11.296Z,28.55
2023-02-14T22:36:38.585Z,31.15
2023-02-14T22:39:06.082Z,31.52
2023-02-14T22:41:37.664Z,31.50
2023-02-14T22:44:06.090Z,31.50
2023-02-14T22:46:36.717Z,31.83
2023-02-14T22:49:04.252Z,29.67
2023-02-14T22:51:37.109Z,30.95
2023-02-14T22:54:07.797Z,31.75
2023-02-14T22:56:38.952Z,28.23
2023-02-14T22:59:08.948Z,30.27
2023-02-14T23:01:36.554Z,30.17
2023-02-14T23:04:04.999Z,32.78
2023-02-14T23:06:35.167Z,30.55
2023-02-14T23:09:07.430Z,31.13
2023-02-14T23:11:36.958Z,29.00
2023-02-14T23:14:23.502Z,30.88
2023-02-14T23:17:26.268Z,29.27
2023-02-14T23:20:12.002Z,31.10
2023-02-14T23:22:41.053Z,31.50
2023-02-14T23:25:11.434Z,29.75
2023-02-14T23:27:41.921Z,29.08
2023-02-14T23:30:14.946Z,29.80
2023-02-14T23:32:42.334Z,30.88
2023-02-14T23:35:10.364Z,28.90
2023-02-14T23:37:38.343Z,27.27
2023-02-14T23:40:06.747Z,31.05
2023-02-14T23:42:34.039Z,28.70
2023-02-14T23:45:21.342Z,27.08
2023-02-14T23:47:48.682Z,30.08
2023-02-14T23:50:16.080Z,29.80
2023-02-14T23:52:44.547Z,28.73
2023-02-14T23:55:12.350Z,30.15
2023-02-14T23:57:39.814Z,28.33
